Airfield :
LOGIN :

Register | Disclaimer

   EN    FR    IT 

 










Legend :    VFR   Marginal VFR   IFR   Intensive IFR   Very Intensive IFR
Visi :
Ceiling :
>= 8 km
>= 3000ft
5 to 8 km
1000 to 3000 ft
1500m to 5 km
500 to 1000 ft
800 to 1500m
200 to 500 ft
< 800m
< 200 ft
Symbols :   Thunderstorms  Fog  Heavy snow  Heavy precipitations  Wind > 20 kt
SIGMETs :     Misc.  Thunderstorms  Icing  Turbulence  Mountain Waves  Volcanic Ashes






- Airport Elevation : 0 ft
- IATA code : QFR


LIRH - Frosinone Military

CURRENT METAR :
  • 301655Z 18002KT CAVOK 35/24 Q1010

EXPIRED METARs :
  • 301555Z 27003KT 9999 FEW040 36/21 Q1010
  • 301455Z 29010KT 9999 FEW040 37/20 Q1010 RMK FEW MON LIB NC VIS MIN 9999 WIND THR16 29010KT BLU

TAF TAF LIRH
Valid from the 30 at 15:00 until the 31 at 00:00 UTC


301400Z 3015/3024 27010KT CAVOK
BECMG 3017/3019 30005KT



MET'MAP, your aeronautical weather chart ! - Copyright ORBIFLY December 2007 - Disclaimer

ORBIFLY MET'MAP TEAM :

Programming & Development : Alexandra Zaïnal
Concept & original design : Baudouin d'Aumeries
Assistance for programming : Marc-Olivier Méhu
Technical & hardware support : Manuel Goepfert

Contact : metmap@orbifly.com




SOURCES & CREDITS :

   NOAA